sensor_id;sensor_type;location;lat;lon;timestamp;pressure;altitude;pressure_sealevel;temperature
13304;BMP280;6720;51.958;4.540;2023-07-29T00:00:36;100593.47;;;21.81
13304;BMP280;6720;51.958;4.540;2023-07-29T00:03:02;100590.16;;;21.90
13304;BMP280;6720;51.958;4.540;2023-07-29T00:05:27;100593.13;;;21.73
13304;BMP280;6720;51.958;4.540;2023-07-29T00:07:53;100585.59;;;21.66
13304;BMP280;6720;51.958;4.540;2023-07-29T00:10:18;100586.84;;;21.60
13304;BMP280;6720;51.958;4.540;2023-07-29T00:12:43;100576.88;;;21.64
13304;BMP280;6720;51.958;4.540;2023-07-29T00:15:09;100575.03;;;21.52
13304;BMP280;6720;51.958;4.540;2023-07-29T00:17:35;100573.22;;;21.65
13304;BMP280;6720;51.958;4.540;2023-07-29T00:20:00;100575.19;;;21.75
13304;BMP280;6720;51.958;4.540;2023-07-29T00:22:26;100574.28;;;21.62
13304;BMP280;6720;51.958;4.540;2023-07-29T00:24:52;100566.78;;;21.54
13304;BMP280;6720;51.958;4.540;2023-07-29T00:27:20;100565.28;;;21.38
13304;BMP280;6720;51.958;4.540;2023-07-29T00:29:45;100571.44;;;21.38
13304;BMP280;6720;51.958;4.540;2023-07-29T00:32:10;100572.44;;;21.50
13304;BMP280;6720;51.958;4.540;2023-07-29T00:34:36;100563.09;;;21.30
13304;BMP280;6720;51.958;4.540;2023-07-29T00:37:01;100567.59;;;21.42
13304;BMP280;6720;51.958;4.540;2023-07-29T00:39:27;100557.56;;;21.33
13304;BMP280;6720;51.958;4.540;2023-07-29T00:41:52;100571.03;;;21.44
13304;BMP280;6720;51.958;4.540;2023-07-29T00:44:18;100566.09;;;21.38
13304;BMP280;6720;51.958;4.540;2023-07-29T00:46:45;100562.50;;;21.39
13304;BMP280;6720;51.958;4.540;2023-07-29T00:49:11;100566.59;;;21.58
13304;BMP280;6720;51.958;4.540;2023-07-29T00:51:36;100560.38;;;21.44
13304;BMP280;6720;51.958;4.540;2023-07-29T00:54:02;100566.69;;;21.43
13304;BMP280;6720;51.958;4.540;2023-07-29T00:56:27;100566.53;;;21.32
13304;BMP280;6720;51.958;4.540;2023-07-29T00:58:54;100562.91;;;21.33
13304;BMP280;6720;51.958;4.540;2023-07-29T01:01:24;100562.22;;;21.30
13304;BMP280;6720;51.958;4.540;2023-07-29T01:03:50;100562.97;;;21.46
13304;BMP280;6720;51.958;4.540;2023-07-29T01:09:10;100562.69;;;20.96
13304;BMP280;6720;51.958;4.540;2023-07-29T01:11:49;100556.81;;;21.05
13304;BMP280;6720;51.958;4.540;2023-07-29T01:14:41;100554.50;;;21.13
13304;BMP280;6720;51.958;4.540;2023-07-29T01:17:18;100554.59;;;21.11
13304;BMP280;6720;51.958;4.540;2023-07-29T01:20:08;100547.94;;;21.18
13304;BMP280;6720;51.958;4.540;2023-07-29T01:22:35;100548.72;;;21.06
13304;BMP280;6720;51.958;4.540;2023-07-29T01:25:02;100550.50;;;21.20
13304;BMP280;6720;51.958;4.540;2023-07-29T01:27:27;100540.91;;;21.17
13304;BMP280;6720;51.958;4.540;2023-07-29T01:29:54;100548.56;;;21.22
13304;BMP280;6720;51.958;4.540;2023-07-29T01:37:26;100544.84;;;20.98
13304;BMP280;6720;51.958;4.540;2023-07-29T01:39:54;100539.03;;;20.91
13304;BMP280;6720;51.958;4.540;2023-07-29T01:42:21;100538.72;;;21.10
13304;BMP280;6720;51.958;4.540;2023-07-29T01:44:47;100539.78;;;21.07
13304;BMP280;6720;51.958;4.540;2023-07-29T01:47:13;100537.88;;;21.09
13304;BMP280;6720;51.958;4.540;2023-07-29T01:49:38;100531.25;;;21.02
13304;BMP280;6720;51.958;4.540;2023-07-29T01:52:04;100534.44;;;21.07
13304;BMP280;6720;51.958;4.540;2023-07-29T01:54:29;100528.75;;;20.85
13304;BMP280;6720;51.958;4.540;2023-07-29T01:56:54;100521.84;;;20.97
13304;BMP280;6720;51.958;4.540;2023-07-29T01:59:20;100515.47;;;20.71
13304;BMP280;6720;51.958;4.540;2023-07-29T02:01:45;100524.59;;;20.67
13304;BMP280;6720;51.958;4.540;2023-07-29T02:04:11;100523.44;;;20.85
13304;BMP280;6720;51.958;4.540;2023-07-29T02:06:37;100530.13;;;20.92
13304;BMP280;6720;51.958;4.540;2023-07-29T02:09:02;100521.75;;;20.84
13304;BMP280;6720;51.958;4.540;2023-07-29T02:11:29;100519.88;;;20.58
13304;BMP280;6720;51.958;4.540;2023-07-29T02:13:55;100515.56;;;20.84
13304;BMP280;6720;51.958;4.540;2023-07-29T02:16:21;100524.16;;;20.61
13304;BMP280;6720;51.958;4.540;2023-07-29T02:18:48;100521.00;;;20.68
13304;BMP280;6720;51.958;4.540;2023-07-29T02:21:15;100505.44;;;20.62
13304;BMP280;6720;51.958;4.540;2023-07-29T02:23:40;100509.78;;;20.63
13304;BMP280;6720;51.958;4.540;2023-07-29T02:26:05;100512.44;;;20.63
13304;BMP280;6720;51.958;4.540;2023-07-29T02:28:31;100513.88;;;20.69
13304;BMP280;6720;51.958;4.540;2023-07-29T02:31:15;100498.50;;;20.46
13304;BMP280;6720;51.958;4.540;2023-07-29T02:33:41;100506.47;;;20.32
13304;BMP280;6720;51.958;4.540;2023-07-29T02:36:06;100493.00;;;20.49
13304;BMP280;6720;51.958;4.540;2023-07-29T02:38:31;100480.94;;;20.57
13304;BMP280;6720;51.958;4.540;2023-07-29T02:40:57;100479.19;;;20.70
13304;BMP280;6720;51.958;4.540;2023-07-29T02:43:22;100489.44;;;20.76
13304;BMP280;6720;51.958;4.540;2023-07-29T02:45:48;100481.56;;;20.75
13304;BMP280;6720;51.958;4.540;2023-07-29T02:48:13;100475.56;;;20.71
13304;BMP280;6720;51.958;4.540;2023-07-29T02:50:38;100473.41;;;20.64
13304;BMP280;6720;51.958;4.540;2023-07-29T02:53:04;100487.34;;;20.67
13304;BMP280;6720;51.958;4.540;2023-07-29T02:55:30;100492.91;;;20.64
13304;BMP280;6720;51.958;4.540;2023-07-29T02:57:55;100494.53;;;20.53
13304;BMP280;6720;51.958;4.540;2023-07-29T03:00:21;100494.06;;;20.46
13304;BMP280;6720;51.958;4.540;2023-07-29T03:02:46;100499.06;;;20.65
13304;BMP280;6720;51.958;4.540;2023-07-29T03:05:12;100496.06;;;20.29
13304;BMP280;6720;51.958;4.540;2023-07-29T03:07:37;100496.81;;;20.59
13304;BMP280;6720;51.958;4.540;2023-07-29T03:10:03;100495.91;;;20.72
13304;BMP280;6720;51.958;4.540;2023-07-29T03:12:29;100502.88;;;20.61
13304;BMP280;6720;51.958;4.540;2023-07-29T03:14:54;100503.53;;;20.36
13304;BMP280;6720;51.958;4.540;2023-07-29T03:17:19;100506.56;;;20.44
13304;BMP280;6720;51.958;4.540;2023-07-29T03:19:45;100502.03;;;20.32
13304;BMP280;6720;51.958;4.540;2023-07-29T03:22:10;100496.34;;;20.38
13304;BMP280;6720;51.958;4.540;2023-07-29T03:24:36;100508.13;;;20.20
13304;BMP280;6720;51.958;4.540;2023-07-29T03:27:01;100496.53;;;20.35
13304;BMP280;6720;51.958;4.540;2023-07-29T03:29:26;100500.88;;;20.36
13304;BMP280;6720;51.958;4.540;2023-07-29T03:31:52;100504.88;;;20.43
13304;BMP280;6720;51.958;4.540;2023-07-29T03:34:17;100511.91;;;20.44
13304;BMP280;6720;51.958;4.540;2023-07-29T03:36:43;100510.56;;;20.37
13304;BMP280;6720;51.958;4.540;2023-07-29T03:39:08;100503.94;;;20.30
13304;BMP280;6720;51.958;4.540;2023-07-29T03:41:33;100509.06;;;20.47
13304;BMP280;6720;51.958;4.540;2023-07-29T03:43:59;100513.81;;;20.42
13304;BMP280;6720;51.958;4.540;2023-07-29T03:46:25;100507.34;;;20.32
13304;BMP280;6720;51.958;4.540;2023-07-29T03:48:50;100509.06;;;20.33
13304;BMP280;6720;51.958;4.540;2023-07-29T03:51:15;100498.22;;;20.36
13304;BMP280;6720;51.958;4.540;2023-07-29T03:53:41;100503.09;;;20.44
13304;BMP280;6720;51.958;4.540;2023-07-29T03:56:07;100507.63;;;20.42
13304;BMP280;6720;51.958;4.540;2023-07-29T03:58:33;100508.03;;;20.36
13304;BMP280;6720;51.958;4.540;2023-07-29T04:00:58;100511.91;;;20.44
13304;BMP280;6720;51.958;4.540;2023-07-29T04:03:24;100507.34;;;20.32
13304;BMP280;6720;51.958;4.540;2023-07-29T04:05:49;100500.34;;;20.31
13304;BMP280;6720;51.958;4.540;2023-07-29T04:08:15;100502.91;;;20.33
13304;BMP280;6720;51.958;4.540;2023-07-29T04:10:40;100496.13;;;20.41
13304;BMP280;6720;51.958;4.540;2023-07-29T04:13:05;100495.66;;;20.49
13304;BMP280;6720;51.958;4.540;2023-07-29T04:15:31;100496.81;;;20.45
13304;BMP280;6720;51.958;4.540;2023-07-29T04:17:56;100505.84;;;20.42
13304;BMP280;6720;51.958;4.540;2023-07-29T04:20:22;100505.84;;;20.42
13304;BMP280;6720;51.958;4.540;2023-07-29T04:22:47;100507.56;;;20.15
13304;BMP280;6720;51.958;4.540;2023-07-29T04:25:12;100494.06;;;20.32
13304;BMP280;6720;51.958;4.540;2023-07-29T04:27:38;100510.97;;;20.31
13304;BMP280;6720;51.958;4.540;2023-07-29T04:30:04;100500.28;;;20.59
13304;BMP280;6720;51.958;4.540;2023-07-29T04:32:30;100506.94;;;20.52
13304;BMP280;6720;51.958;4.540;2023-07-29T04:34:55;100500.69;;;20.53
13304;BMP280;6720;51.958;4.540;2023-07-29T04:37:21;100502.28;;;20.70
13304;BMP280;6720;51.958;4.540;2023-07-29T04:39:46;100518.63;;;20.64
13304;BMP280;6720;51.958;4.540;2023-07-29T04:42:12;100510.38;;;20.54
13304;BMP280;6720;51.958;4.540;2023-07-29T04:44:37;100523.13;;;20.49
13304;BMP280;6720;51.958;4.540;2023-07-29T04:47:07;100521.00;;;20.68
13304;BMP280;6720;51.958;4.540;2023-07-29T04:49:32;100531.94;;;20.64
13304;BMP280;6720;51.958;4.540;2023-07-29T04:51:57;100522.53;;;20.72
13304;BMP280;6720;51.958;4.540;2023-07-29T04:54:23;100527.44;;;20.78
13304;BMP280;6720;51.958;4.540;2023-07-29T04:56:48;100522.34;;;20.61
13304;BMP280;6720;51.958;4.540;2023-07-29T04:59:14;100523.88;;;20.51
13304;BMP280;6720;51.958;4.540;2023-07-29T05:01:39;100516.84;;;20.50
13304;BMP280;6720;51.958;4.540;2023-07-29T05:04:05;100520.06;;;20.55
13304;BMP280;6720;51.958;4.540;2023-07-29T05:06:30;100519.28;;;20.67
13304;BMP280;6720;51.958;4.540;2023-07-29T05:08:59;100513.13;;;20.53
13304;BMP280;6720;51.958;4.540;2023-07-29T05:11:37;100517.91;;;20.48
13304;BMP280;6720;51.958;4.540;2023-07-29T05:14:02;100513.03;;;20.54
13304;BMP280;6720;51.958;4.540;2023-07-29T05:16:29;100507.47;;;20.85
13304;BMP280;6720;51.958;4.540;2023-07-29T05:18:55;100505.97;;;20.81
13304;BMP280;6720;51.958;4.540;2023-07-29T05:21:20;100500.84;;;20.92
13304;BMP280;6720;51.958;4.540;2023-07-29T05:23:46;100496.31;;;20.66
13304;BMP280;6720;51.958;4.540;2023-07-29T05:26:11;100491.06;;;20.79
13304;BMP280;6720;51.958;4.540;2023-07-29T05:28:37;100486.34;;;20.70
13304;BMP280;6720;51.958;4.540;2023-07-29T05:31:02;100490.00;;;20.81
13304;BMP280;6720;51.958;4.540;2023-07-29T05:33:27;100492.47;;;20.98
13304;BMP280;6720;51.958;4.540;2023-07-29T05:35:53;100496.06;;;20.97
13304;BMP280;6720;51.958;4.540;2023-07-29T05:38:18;100496.16;;;20.96
13304;BMP280;6720;51.958;4.540;2023-07-29T05:40:44;100495.47;;;21.06
13304;BMP280;6720;51.958;4.540;2023-07-29T05:43:09;100490.09;;;20.94
13304;BMP280;6720;51.958;4.540;2023-07-29T05:45:35;100487.41;;;21.08
13304;BMP280;6720;51.958;4.540;2023-07-29T05:48:00;100510.66;;;21.18
13304;BMP280;6720;51.958;4.540;2023-07-29T05:50:25;100509.59;;;21.21
13304;BMP280;6720;51.958;4.540;2023-07-29T05:52:51;100512.00;;;21.11
13304;BMP280;6720;51.958;4.540;2023-07-29T05:55:16;100515.16;;;20.90
13304;BMP280;6720;51.958;4.540;2023-07-29T05:57:42;100521.56;;;20.87
13304;BMP280;6720;51.958;4.540;2023-07-29T06:00:08;100516.78;;;20.78
13304;BMP280;6720;51.958;4.540;2023-07-29T06:02:33;100527.66;;;20.75
13304;BMP280;6720;51.958;4.540;2023-07-29T06:04:58;100517.16;;;21.00
13304;BMP280;6720;51.958;4.540;2023-07-29T06:07:24;100519.63;;;20.89
13304;BMP280;6720;51.958;4.540;2023-07-29T06:09:53;100514.66;;;21.11
13304;BMP280;6720;51.958;4.540;2023-07-29T06:12:20;100508.72;;;21.20
13304;BMP280;6720;51.958;4.540;2023-07-29T06:14:45;100512.00;;;21.38
13304;BMP280;6720;51.958;4.540;2023-07-29T06:17:11;100512.34;;;21.46
13304;BMP280;6720;51.958;4.540;2023-07-29T06:19:36;100517.97;;;21.41
13304;BMP280;6720;51.958;4.540;2023-07-29T06:22:02;100507.66;;;21.49
13304;BMP280;6720;51.958;4.540;2023-07-29T06:24:27;100509.34;;;21.50
13304;BMP280;6720;51.958;4.540;2023-07-29T06:26:53;100517.69;;;21.19
13304;BMP280;6720;51.958;4.540;2023-07-29T06:29:18;100525.41;;;21.36
13304;BMP280;6720;51.958;4.540;2023-07-29T06:31:44;100513.88;;;21.63
13304;BMP280;6720;51.958;4.540;2023-07-29T06:34:09;100519.03;;;21.39
13304;BMP280;6720;51.958;4.540;2023-07-29T06:36:34;100523.78;;;21.61
13304;BMP280;6720;51.958;4.540;2023-07-29T06:39:00;100520.91;;;21.64
13304;BMP280;6720;51.958;4.540;2023-07-29T06:41:25;100516.38;;;21.78
13304;BMP280;6720;51.958;4.540;2023-07-29T06:43:51;100517.81;;;21.70
13304;BMP280;6720;51.958;4.540;2023-07-29T06:46:16;100513.97;;;21.61
13304;BMP280;6720;51.958;4.540;2023-07-29T06:48:42;100514.88;;;21.74
13304;BMP280;6720;51.958;4.540;2023-07-29T06:51:07;100517.91;;;21.95
13304;BMP280;6720;51.958;4.540;2023-07-29T06:53:33;100525.88;;;21.82
13304;BMP280;6720;51.958;4.540;2023-07-29T06:55:59;100525.16;;;21.93
13304;BMP280;6720;51.958;4.540;2023-07-29T06:58:25;100530.81;;;21.62
13304;BMP280;6720;51.958;4.540;2023-07-29T07:00:50;100523.56;;;21.64
13304;BMP280;6720;51.958;4.540;2023-07-29T07:03:16;100516.81;;;21.85
13304;BMP280;6720;51.958;4.540;2023-07-29T07:05:41;100520.63;;;21.81
13304;BMP280;6720;51.958;4.540;2023-07-29T07:08:06;100528.34;;;21.98
13304;BMP280;6720;51.958;4.540;2023-07-29T07:10:32;100530.13;;;21.85
13304;BMP280;6720;51.958;4.540;2023-07-29T07:12:59;100526.44;;;21.61
13304;BMP280;6720;51.958;4.540;2023-07-29T07:15:24;100522.47;;;21.53
13304;BMP280;6720;51.958;4.540;2023-07-29T07:17:51;100528.91;;;21.64
13304;BMP280;6720;51.958;4.540;2023-07-29T07:20:17;100525.56;;;21.87
13304;BMP280;6720;51.958;4.540;2023-07-29T07:22:42;100521.84;;;21.89
13304;BMP280;6720;51.958;4.540;2023-07-29T07:25:08;100531.13;;;21.96
13304;BMP280;6720;51.958;4.540;2023-07-29T07:27:33;100530.69;;;22.15
13304;BMP280;6720;51.958;4.540;2023-07-29T07:29:58;100536.91;;;22.28
13304;BMP280;6720;51.958;4.540;2023-07-29T07:32:24;100537.09;;;22.25
13304;BMP280;6720;51.958;4.540;2023-07-29T07:34:49;100544.81;;;22.42
13304;BMP280;6720;51.958;4.540;2023-07-29T07:37:15;100544.03;;;22.15
13304;BMP280;6720;51.958;4.540;2023-07-29T07:39:41;100546.47;;;22.05
13304;BMP280;6720;51.958;4.540;2023-07-29T07:42:06;100542.84;;;21.94
13304;BMP280;6720;51.958;4.540;2023-07-29T07:44:32;100550.31;;;22.14
13304;BMP280;6720;51.958;4.540;2023-07-29T07:46:57;100539.78;;;22.25
13304;BMP280;6720;51.958;4.540;2023-07-29T07:49:23;100537.97;;;22.25
13304;BMP280;6720;51.958;4.540;2023-07-29T07:51:48;100541.34;;;21.90
13304;BMP280;6720;51.958;4.540;2023-07-29T07:54:14;100543.19;;;22.27
13304;BMP280;6720;51.958;4.540;2023-07-29T07:56:39;100559.72;;;22.32
13304;BMP280;6720;51.958;4.540;2023-07-29T07:59:04;100548.84;;;22.35
13304;BMP280;6720;51.958;4.540;2023-07-29T08:01:38;100557.63;;;22.49
13304;BMP280;6720;51.958;4.540;2023-07-29T08:04:03;100558.25;;;22.28
13304;BMP280;6720;51.958;4.540;2023-07-29T08:06:30;100553.31;;;22.22
13304;BMP280;6720;51.958;4.540;2023-07-29T08:08:56;100564.66;;;22.25
13304;BMP280;6720;51.958;4.540;2023-07-29T08:11:21;100567.31;;;22.38
13304;BMP280;6720;51.958;4.540;2023-07-29T08:13:47;100559.97;;;22.54
13304;BMP280;6720;51.958;4.540;2023-07-29T08:16:12;100562.28;;;22.46
13304;BMP280;6720;51.958;4.540;2023-07-29T08:18:38;100566.34;;;22.64
13304;BMP280;6720;51.958;4.540;2023-07-29T08:21:03;100570.72;;;22.40
13304;BMP280;6720;51.958;4.540;2023-07-29T08:23:30;100568.25;;;22.37
13304;BMP280;6720;51.958;4.540;2023-07-29T08:25:58;100563.56;;;22.28
13304;BMP280;6720;51.958;4.540;2023-07-29T08:28:35;100554.63;;;22.54
13304;BMP280;6720;51.958;4.540;2023-07-29T08:31:01;100569.44;;;22.33
13304;BMP280;6720;51.958;4.540;2023-07-29T08:33:27;100570.28;;;22.46
13304;BMP280;6720;51.958;4.540;2023-07-29T08:35:53;100567.94;;;22.29
13304;BMP280;6720;51.958;4.540;2023-07-29T08:38:19;100565.91;;;22.20
13304;BMP280;6720;51.958;4.540;2023-07-29T08:40:57;100572.72;;;21.99
13304;BMP280;6720;51.958;4.540;2023-07-29T08:43:29;100568.22;;;21.87
13304;BMP280;6720;51.958;4.540;2023-07-29T08:45:57;100564.84;;;22.22
13304;BMP280;6720;51.958;4.540;2023-07-29T08:48:30;100573.38;;;22.27
13304;BMP280;6720;51.958;4.540;2023-07-29T08:50:59;100565.25;;;22.16
13304;BMP280;6720;51.958;4.540;2023-07-29T08:53:25;100566.13;;;22.42
13304;BMP280;6720;51.958;4.540;2023-07-29T08:55:51;100568.72;;;22.56
13304;BMP280;6720;51.958;4.540;2023-07-29T08:58:19;100572.75;;;22.74
13304;BMP280;6720;51.958;4.540;2023-07-29T09:00:45;100564.06;;;22.83
13304;BMP280;6720;51.958;4.540;2023-07-29T09:03:11;100565.88;;;22.95
13304;BMP280;6720;51.958;4.540;2023-07-29T09:05:36;100577.03;;;22.39
13304;BMP280;6720;51.958;4.540;2023-07-29T09:08:02;100573.38;;;22.40
13304;BMP280;6720;51.958;4.540;2023-07-29T09:10:28;100580.66;;;22.38
13304;BMP280;6720;51.958;4.540;2023-07-29T09:12:55;100573.81;;;22.46
13304;BMP280;6720;51.958;4.540;2023-07-29T09:15:27;100580.66;;;22.38
13304;BMP280;6720;51.958;4.540;2023-07-29T09:17:53;100581.38;;;22.27
13304;BMP280;6720;51.958;4.540;2023-07-29T09:20:26;100588.78;;;22.49
13304;BMP280;6720;51.958;4.540;2023-07-29T09:22:53;100585.66;;;22.42
13304;BMP280;6720;51.958;4.540;2023-07-29T09:25:27;100567.09;;;22.66
13304;BMP280;6720;51.958;4.540;2023-07-29T09:27:58;100578.72;;;22.40
13304;BMP280;6720;51.958;4.540;2023-07-29T09:30:24;100575.63;;;22.46
13304;BMP280;6720;51.958;4.540;2023-07-29T09:32:57;100584.09;;;22.65
13304;BMP280;6720;51.958;4.540;2023-07-29T09:35:23;100576.81;;;22.67
13304;BMP280;6720;51.958;4.540;2023-07-29T09:37:50;100571.25;;;22.82
13304;BMP280;6720;51.958;4.540;2023-07-29T09:40:17;100574.03;;;22.81
13304;BMP280;6720;51.958;4.540;2023-07-29T09:42:53;100569.34;;;22.59
13304;BMP280;6720;51.958;4.540;2023-07-29T09:45:26;100572.91;;;22.47
13304;BMP280;6720;51.958;4.540;2023-07-29T09:47:53;100579.78;;;22.75
13304;BMP280;6720;51.958;4.540;2023-07-29T09:50:18;100575.09;;;22.91
13304;BMP280;6720;51.958;4.540;2023-07-29T09:52:44;100574.59;;;23.22
13304;BMP280;6720;51.958;4.540;2023-07-29T09:55:17;100562.25;;;23.55
13304;BMP280;6720;51.958;4.540;2023-07-29T09:57:44;100564.88;;;23.08
13304;BMP280;6720;51.958;4.540;2023-07-29T10:00:13;100567.31;;;23.24
13304;BMP280;6720;51.958;4.540;2023-07-29T10:02:41;100566.47;;;23.11
13304;BMP280;6720;51.958;4.540;2023-07-29T10:05:08;100570.47;;;22.93
13304;BMP280;6720;51.958;4.540;2023-07-29T10:07:37;100580.84;;;22.85
13304;BMP280;6720;51.958;4.540;2023-07-29T10:10:04;100591.66;;;22.58
13304;BMP280;6720;51.958;4.540;2023-07-29T10:12:31;100589.38;;;22.40
13304;BMP280;6720;51.958;4.540;2023-07-29T10:14:59;100596.66;;;22.38
13304;BMP280;6720;51.958;4.540;2023-07-29T10:17:26;100592.19;;;22.51
13304;BMP280;6720;51.958;4.540;2023-07-29T10:19:52;100598.50;;;22.50
13304;BMP280;6720;51.958;4.540;2023-07-29T10:22:20;100601.03;;;22.39
13304;BMP280;6720;51.958;4.540;2023-07-29T10:24:47;100609.19;;;21.98
13304;BMP280;6720;51.958;4.540;2023-07-29T10:27:18;100597.47;;;22.01
13304;BMP280;6720;51.958;4.540;2023-07-29T10:29:45;100601.66;;;21.78
13304;BMP280;6720;51.958;4.540;2023-07-29T10:32:11;100592.31;;;21.85
13304;BMP280;6720;51.958;4.540;2023-07-29T10:34:37;100594.81;;;22.13
13304;BMP280;6720;51.958;4.540;2023-07-29T10:37:03;100593.84;;;22.02
13304;BMP280;6720;51.958;4.540;2023-07-29T10:39:38;100599.66;;;21.82
13304;BMP280;6720;51.958;4.540;2023-07-29T10:42:06;100603.00;;;21.98
13304;BMP280;6720;51.958;4.540;2023-07-29T10:47:13;100594.00;;;21.74
13304;BMP280;6720;51.958;4.540;2023-07-29T10:49:43;100598.91;;;21.66
13304;BMP280;6720;51.958;4.540;2023-07-29T10:52:13;100595.94;;;21.84
13304;BMP280;6720;51.958;4.540;2023-07-29T10:54:43;100594.47;;;21.93
13304;BMP280;6720;51.958;4.540;2023-07-29T10:57:15;100604.28;;;22.05
13304;BMP280;6720;51.958;4.540;2023-07-29T10:59:48;100597.41;;;21.76
13304;BMP280;6720;51.958;4.540;2023-07-29T11:02:18;100601.22;;;21.72
13304;BMP280;6720;51.958;4.540;2023-07-29T11:04:50;100596.44;;;22.28
13304;BMP280;6720;51.958;4.540;2023-07-29T11:17:33;100580.41;;;23.63
13304;BMP280;6720;51.958;4.540;2023-07-29T11:20:02;100576.22;;;23.82
13304;BMP280;6720;51.958;4.540;2023-07-29T11:22:29;100584.75;;;24.22
13304;BMP280;6720;51.958;4.540;2023-07-29T11:24:55;100574.25;;;23.97
13304;BMP280;6720;51.958;4.540;2023-07-29T11:27:20;100570.41;;;24.12
13304;BMP280;6720;51.958;4.540;2023-07-29T11:29:47;100567.59;;;23.79
13304;BMP280;6720;51.958;4.540;2023-07-29T11:32:12;100575.13;;;24.08
13304;BMP280;6720;51.958;4.540;2023-07-29T11:34:38;100578.50;;;23.76
13304;BMP280;6720;51.958;4.540;2023-07-29T11:37:05;100576.88;;;23.62
13304;BMP280;6720;51.958;4.540;2023-07-29T11:39:32;100583.97;;;23.15
13304;BMP280;6720;51.958;4.540;2023-07-29T11:41:58;100585.06;;;23.25
13304;BMP280;6720;51.958;4.540;2023-07-29T11:44:24;100582.22;;;23.39
13304;BMP280;6720;51.958;4.540;2023-07-29T11:46:50;100584.81;;;23.75
13304;BMP280;6720;51.958;4.540;2023-07-29T11:49:15;100587.84;;;23.94
13304;BMP280;6720;51.958;4.540;2023-07-29T11:51:41;100592.34;;;23.70
13304;BMP280;6720;51.958;4.540;2023-07-29T11:54:08;100589.47;;;23.84
13304;BMP280;6720;51.958;4.540;2023-07-29T11:56:34;100588.25;;;24.11
13304;BMP280;6720;51.958;4.540;2023-07-29T11:59:01;100592.22;;;23.95
13304;BMP280;6720;51.958;4.540;2023-07-29T12:01:28;100596.06;;;23.56
13304;BMP280;6720;51.958;4.540;2023-07-29T12:03:55;100584.31;;;23.46
13304;BMP280;6720;51.958;4.540;2023-07-29T12:06:21;100584.66;;;23.89
13304;BMP280;6720;51.958;4.540;2023-07-29T12:08:47;100578.41;;;24.01
13304;BMP280;6720;51.958;4.540;2023-07-29T12:11:13;100577.00;;;24.30
13304;BMP280;6720;51.958;4.540;2023-07-29T12:13:41;100576.59;;;24.80
13304;BMP280;6720;51.958;4.540;2023-07-29T12:16:07;100571.66;;;24.41
13304;BMP280;6720;51.958;4.540;2023-07-29T12:18:32;100579.72;;;25.07
13304;BMP280;6720;51.958;4.540;2023-07-29T12:20:59;100578.00;;;25.28
13304;BMP280;6720;51.958;4.540;2023-07-29T12:23:25;100572.38;;;25.42
13304;BMP280;6720;51.958;4.540;2023-07-29T12:25:57;100581.75;;;25.37
13304;BMP280;6720;51.958;4.540;2023-07-29T12:28:23;100574.00;;;24.56
13304;BMP280;6720;51.958;4.540;2023-07-29T12:30:53;100576.78;;;24.55
13304;BMP280;6720;51.958;4.540;2023-07-29T12:33:32;100567.69;;;24.01
13304;BMP280;6720;51.958;4.540;2023-07-29T12:35:58;100574.84;;;24.00
13304;BMP280;6720;51.958;4.540;2023-07-29T12:38:27;100568.75;;;24.44
13304;BMP280;6720;51.958;4.540;2023-07-29T12:40:52;100572.16;;;24.46
13304;BMP280;6720;51.958;4.540;2023-07-29T12:43:18;100570.31;;;24.46
13304;BMP280;6720;51.958;4.540;2023-07-29T12:45:43;100576.59;;;24.80
13304;BMP280;6720;51.958;4.540;2023-07-29T12:48:09;100581.75;;;25.37
13304;BMP280;6720;51.958;4.540;2023-07-29T12:50:36;100571.59;;;25.62
13304;BMP280;6720;51.958;4.540;2023-07-29T12:53:01;100571.44;;;25.21
13304;BMP280;6720;51.958;4.540;2023-07-29T12:55:27;100566.56;;;25.04
13304;BMP280;6720;51.958;4.540;2023-07-29T12:57:52;100582.97;;;25.22
13304;BMP280;6720;51.958;4.540;2023-07-29T13:00:18;100583.63;;;24.81
13304;BMP280;6720;51.958;4.540;2023-07-29T13:02:43;100579.25;;;24.69
13304;BMP280;6720;51.958;4.540;2023-07-29T13:05:12;100578.28;;;25.03
13304;BMP280;6720;51.958;4.540;2023-07-29T13:07:39;100590.09;;;24.79
13304;BMP280;6720;51.958;4.540;2023-07-29T13:10:04;100579.44;;;24.44
13304;BMP280;6720;51.958;4.540;2023-07-29T13:12:30;100588.91;;;24.37
13304;BMP280;6720;51.958;4.540;2023-07-29T13:14:55;100590.84;;;24.70
13304;BMP280;6720;51.958;4.540;2023-07-29T13:17:22;100590.47;;;24.85
13304;BMP280;6720;51.958;4.540;2023-07-29T13:19:47;100593.09;;;25.18
13304;BMP280;6720;51.958;4.540;2023-07-29T13:22:12;100586.72;;;25.52
13304;BMP280;6720;51.958;4.540;2023-07-29T13:24:38;100584.22;;;26.03
13304;BMP280;6720;51.958;4.540;2023-07-29T13:27:04;100577.22;;;26.32
13304;BMP280;6720;51.958;4.540;2023-07-29T13:29:29;100565.81;;;26.39
13304;BMP280;6720;51.958;4.540;2023-07-29T13:31:55;100573.88;;;26.60
13304;BMP280;6720;51.958;4.540;2023-07-29T13:34:20;100558.22;;;26.03
13304;BMP280;6720;51.958;4.540;2023-07-29T13:36:46;100578.81;;;26.14
13304;BMP280;6720;51.958;4.540;2023-07-29T13:39:11;100566.47;;;25.59
13304;BMP280;6720;51.958;4.540;2023-07-29T13:41:36;100560.59;;;26.17
13304;BMP280;6720;51.958;4.540;2023-07-29T13:44:02;100575.06;;;25.74
13304;BMP280;6720;51.958;4.540;2023-07-29T13:46:27;100575.19;;;25.72
13304;BMP280;6720;51.958;4.540;2023-07-29T13:48:53;100573.78;;;25.57
13304;BMP280;6720;51.958;4.540;2023-07-29T13:51:18;100581.22;;;25.96
13304;BMP280;6720;51.958;4.540;2023-07-29T13:53:44;100588.84;;;26.42
13304;BMP280;6720;51.958;4.540;2023-07-29T13:56:09;100579.75;;;26.33
13304;BMP280;6720;51.958;4.540;2023-07-29T13:58:34;100580.22;;;26.59
13304;BMP280;6720;51.958;4.540;2023-07-29T14:01:00;100581.97;;;26.99
13304;BMP280;6720;51.958;4.540;2023-07-29T14:03:25;100576.56;;;27.39
13304;BMP280;6720;51.958;4.540;2023-07-29T14:05:51;100576.50;;;27.20
13304;BMP280;6720;51.958;4.540;2023-07-29T14:08:16;100570.44;;;27.27
13304;BMP280;6720;51.958;4.540;2023-07-29T14:10:42;100574.13;;;27.26
13304;BMP280;6720;51.958;4.540;2023-07-29T14:13:07;100576.44;;;26.20
13304;BMP280;6720;51.958;4.540;2023-07-29T14:15:32;100583.03;;;26.57
13304;BMP280;6720;51.958;4.540;2023-07-29T14:17:58;100575.94;;;26.56
13304;BMP280;6720;51.958;4.540;2023-07-29T14:20:23;100580.56;;;26.24
13304;BMP280;6720;51.958;4.540;2023-07-29T14:22:49;100580.81;;;26.21
13304;BMP280;6720;51.958;4.540;2023-07-29T14:25:15;100576.00;;;26.15